Time;durP1;ratioP1;P1;durP2;ratioP2;P2;SDS_P1;SDS_P2;PMS_P1;PMS_P2;Temp;Humidity;BMP_temperature;BMP_pressure;BME280_temperature;BME280_humidity;BME280_pressure;Samples;Min_cycle;Max_cycle;Signal;HPM_P1;HPM_P2
2023/12/20 00:01:30;;;;;;;15.50;12.07;;;18.30;88.80;;;;;;5038816;28;20052;-67
2023/12/20 00:03:56;;;;;;;15.57;12.07;;;18.60;89.00;;;;;;5062288;28;20106;-68
2023/12/20 00:06:21;;;;;;;15.75;11.55;;;18.30;88.80;;;;;;5072765;28;20122;-66
2023/12/20 00:08:47;;;;;;;13.35;10.93;;;18.30;88.80;;;;;;5073236;28;20048;-69
2023/12/20 00:11:13;;;;;;;12.77;9.68;;;;;;;;;;5071150;28;20105;-67
2023/12/20 00:13:39;;;;;;;14.13;10.32;;;;;;;;;;5052236;28;20371;-67
2023/12/20 00:16:05;;;;;;;13.32;9.15;;;18.50;88.80;;;;;;5040114;28;20056;-67
2023/12/20 00:18:31;;;;;;;14.82;8.75;;;18.20;88.70;;;;;;5033150;28;20041;-68
2023/12/20 00:20:57;;;;;;;10.82;8.35;;;;;;;;;;5065109;28;20050;-69
2023/12/20 00:23:23;;;;;;;12.13;8.00;;;18.30;88.60;;;;;;5047226;28;20081;-65
2023/12/20 00:25:49;;;;;;;9.90;7.68;;;;;;;;;;5052855;28;20041;-65
2023/12/20 00:28:15;;;;;;;11.02;7.40;;;;;;;;;;5052731;28;20036;-68
2023/12/20 00:30:41;;;;;;;9.90;6.70;;;18.20;88.60;;;;;;5051579;28;20048;-67
2023/12/20 00:33:07;;;;;;;10.63;7.35;;;;;;;;;;5057030;28;20045;-66
2023/12/20 00:35:34;;;;;;;10.05;6.40;;;;;;;;;;5052359;28;20045;-65
2023/12/20 00:38:00;;;;;;;11.25;6.47;;;;;;;;;;5051731;28;20076;-66
2023/12/20 00:40:26;;;;;;;12.50;6.13;;;;;;;;;;5052532;28;20048;-65
2023/12/20 00:42:51;;;;;;;10.27;5.65;;;17.90;88.60;;;;;;5055702;28;20214;-66
2023/12/20 00:45:17;;;;;;;9.77;5.97;;;18.00;88.70;;;;;;5072545;28;20128;-67
2023/12/20 00:47:43;;;;;;;10.32;5.57;;;18.00;88.70;;;;;;5067679;28;20051;-67
2023/12/20 00:50:09;;;;;;;11.13;5.30;;;17.90;86.90;;;;;;5045407;28;20041;-64
2023/12/20 00:52:35;;;;;;;8.88;4.75;;;18.00;88.80;;;;;;5024741;28;20076;-64
2023/12/20 00:55:01;;;;;;;11.55;5.35;;;18.10;87.70;;;;;;5054431;28;20051;-67
2023/12/20 00:57:26;;;;;;;8.23;4.78;;;17.70;88.60;;;;;;5050029;28;20052;-68
2023/12/20 00:59:52;;;;;;;8.95;4.63;;;;;;;;;;5051951;28;20051;-66
2023/12/20 01:02:19;;;;;;;9.40;4.82;;;;;;;;;;5052234;28;20106;-68
2023/12/20 01:04:44;;;;;;;9.13;4.32;;;17.70;88.00;;;;;;5065105;28;20060;-68
2023/12/20 01:07:10;;;;;;;7.18;3.92;;;17.90;88.70;;;;;;5057045;28;20052;-67
2023/12/20 01:09:36;;;;;;;10.68;4.38;;;;;;;;;;5052454;28;20037;-66
2023/12/20 01:12:02;;;;;;;8.07;3.88;;;17.70;88.70;;;;;;5052009;28;20044;-68
2023/12/20 01:14:28;;;;;;;8.45;3.70;;;;;;;;;;5061002;28;20037;-68
2023/12/20 01:16:54;;;;;;;9.05;3.60;;;;;;;;;;5063970;28;20045;-64
2023/12/20 01:19:21;;;;;;;8.43;3.30;;;17.60;88.70;;;;;;5052193;28;20049;-71
2023/12/20 01:21:47;;;;;;;8.15;3.55;;;;;;;;;;5050834;28;20052;-64
2023/12/20 01:24:12;;;;;;;8.02;3.50;;;17.60;88.80;;;;;;5039353;28;20049;-75
2023/12/20 01:26:39;;;;;;;6.80;3.20;;;;;;;;;;5048250;28;20872;-65
2023/12/20 01:29:04;;;;;;;8.85;3.35;;;17.70;88.80;;;;;;5049446;28;20037;-70
2023/12/20 01:31:30;;;;;;;8.20;3.58;;;17.50;88.70;;;;;;5050565;28;20111;-69
2023/12/20 01:33:56;;;;;;;8.88;2.90;;;17.60;87.00;;;;;;5051430;28;20049;-67
2023/12/20 01:36:22;;;;;;;7.35;2.58;;;;;;;;;;5051503;28;20045;-69
2023/12/20 01:38:48;;;;;;;7.68;2.90;;;;;;;;;;5051956;28;20473;-66
2023/12/20 01:41:14;;;;;;;11.35;3.00;;;17.60;88.50;;;;;;5046503;28;20045;-70
2023/12/20 01:43:40;;;;;;;8.02;2.75;;;;;;;;;;5051616;28;20049;-68
2023/12/20 01:46:06;;;;;;;6.78;2.63;;;17.40;88.90;;;;;;5051581;28;20045;-66
2023/12/20 01:48:32;;;;;;;5.90;2.53;;;17.40;88.90;;;;;;5008082;28;20094;-73
2023/12/20 01:50:59;;;;;;;7.57;2.55;;;17.50;88.20;;;;;;5031084;28;20041;-69
2023/12/20 01:53:25;;;;;;;8.23;3.03;;;17.30;88.80;;;;;;5034697;28;20102;-72
2023/12/20 01:55:50;;;;;;;8.93;2.60;;;17.30;88.90;;;;;;5050128;28;20088;-70
2023/12/20 01:58:16;;;;;;;7.35;2.50;;;;;;;;;;5048606;28;20036;-73
2023/12/20 02:00:43;;;;;;;7.35;2.50;;;;;;;;;;5051914;28;20041;-71
2023/12/20 02:03:09;;;;;;;8.85;2.67;;;;;;;;;;5053104;28;20080;-70
2023/12/20 02:05:36;;;;;;;7.20;2.50;;;17.30;88.90;;;;;;5058161;28;20564;-72
2023/12/20 02:08:02;;;;;;;7.25;2.35;;;17.30;88.90;;;;;;5037764;28;20132;-72
2023/12/20 02:10:29;;;;;;;7.82;2.80;;;17.30;88.20;;;;;;5055521;28;20465;-70
2023/12/20 02:12:55;;;;;;;9.00;2.40;;;;;;;;;;5053369;28;20120;-64
2023/12/20 02:15:21;;;;;;;8.57;2.40;;;17.40;88.90;;;;;;5041161;28;20077;-74
2023/12/20 02:17:47;;;;;;;9.93;2.40;;;17.30;87.20;;;;;;5035429;28;20447;-71
2023/12/20 02:20:13;;;;;;;7.05;2.65;;;17.40;89.00;;;;;;5047634;28;20121;-77
2023/12/20 02:22:39;;;;;;;9.73;2.78;;;;;;;;;;5059809;28;20084;-79
2023/12/20 02:25:05;;;;;;;6.80;2.60;;;;;;;;;;5071770;28;20111;-75
2023/12/20 02:27:31;;;;;;;7.57;2.70;;;17.30;88.70;;;;;;5073689;28;20151;-74
2023/12/20 02:29:57;;;;;;;12.32;3.10;;;17.30;87.30;;;;;;5062905;28;20072;-77
2023/12/20 02:32:24;;;;;;;7.90;2.72;;;;;;;;;;5052254;28;20122;-68
2023/12/20 02:34:49;;;;;;;8.45;2.80;;;17.40;88.90;;;;;;5051836;28;20056;-71
2023/12/20 02:37:16;;;;;;;8.30;2.75;;;;;;;;;;5053325;28;20494;-71
2023/12/20 02:39:41;;;;;;;8.55;2.67;;;17.30;88.80;;;;;;5053944;28;20036;-77
2023/12/20 02:42:07;;;;;;;8.05;2.88;;;17.40;88.70;;;;;;5056676;28;20169;-76
2023/12/20 02:44:33;;;;;;;8.57;2.70;;;17.30;85.80;;;;;;5054526;28;20398;-74
2023/12/20 02:46:59;;;;;;;8.88;2.22;;;17.20;88.80;;;;;;5053925;28;20501;-64
2023/12/20 02:49:25;;;;;;;7.10;2.28;;;;;;;;;;5043345;28;20064;-64
2023/12/20 02:51:51;;;;;;;9.85;2.63;;;;;;;;;;5053842;28;20048;-64
2023/12/20 02:54:17;;;;;;;7.03;2.45;;;17.20;88.80;;;;;;5068276;28;20048;-64
2023/12/20 02:56:43;;;;;;;9.35;2.85;;;17.20;88.90;;;;;;5066716;28;20067;-65
2023/12/20 02:59:09;;;;;;;8.18;2.50;;;17.20;89.00;;;;;;5074582;28;20047;-66
2023/12/20 03:01:35;;;;;;;8.57;2.38;;;17.30;88.80;;;;;;5071052;28;20048;-64
2023/12/20 03:04:01;;;;;;;7.07;2.42;;;17.10;88.90;;;;;;5053361;28;20055;-67
2023/12/20 03:06:27;;;;;;;8.05;2.80;;;;;;;;;;5058937;28;20414;-67
2023/12/20 03:08:53;;;;;;;6.88;2.65;;;17.10;87.50;;;;;;5054165;28;20051;-67
2023/12/20 03:11:19;;;;;;;6.45;2.20;;;;;;;;;;5053025;28;20067;-66
2023/12/20 03:13:45;;;;;;;9.02;2.63;;;;;;;;;;5068302;28;20494;-67
2023/12/20 03:16:11;;;;;;;7.68;2.70;;;;;;;;;;5054267;28;20056;-64
2023/12/20 03:18:38;;;;;;;7.35;2.75;;;;;;;;;;5054219;28;20708;-65
2023/12/20 03:21:04;;;;;;;6.65;2.08;;;17.10;86.50;;;;;;5052588;28;20048;-64
2023/12/20 03:23:32;;;;;;;7.78;2.55;;;17.00;89.20;;;;;;5050381;28;20055;-69
2023/12/20 03:25:58;;;;;;;6.90;2.08;;;;;;;;;;5052633;28;20167;-67
2023/12/20 03:28:24;;;;;;;6.35;2.13;;;16.90;89.20;;;;;;5053661;28;20052;-64
2023/12/20 03:30:49;;;;;;;12.25;3.00;;;17.00;88.30;;;;;;5072321;28;20044;-64
2023/12/20 03:33:15;;;;;;;7.10;2.40;;;;;;;;;;5061355;28;20079;-65
2023/12/20 03:35:41;;;;;;;7.18;2.42;;;16.80;89.20;;;;;;5053714;28;20052;-68
2023/12/20 03:38:07;;;;;;;7.63;2.35;;;;;;;;;;5052451;28;20037;-66
2023/12/20 03:40:33;;;;;;;8.77;2.60;;;16.90;88.60;;;;;;5057142;28;20052;-66
2023/12/20 03:42:59;;;;;;;9.13;3.00;;;;;;;;;;5066701;28;20298;-65
2023/12/20 03:45:25;;;;;;;6.50;2.42;;;16.70;89.20;;;;;;5053396;28;20045;-69
2023/12/20 03:48:00;;;;;;;7.85;2.50;;;;;;;;;;5050909;28;20072;-70
2023/12/20 03:50:26;;;;;;;10.35;2.90;;;16.80;86.60;;;;;;5053173;28;20052;-67
2023/12/20 03:52:52;;;;;;;8.60;2.35;;;16.80;89.40;;;;;;5051920;28;20052;-66
2023/12/20 03:55:18;;;;;;;9.70;3.00;;;16.70;89.30;;;;;;5053515;28;20048;-65
2023/12/20 03:57:44;;;;;;;9.80;2.80;;;;;;;;;;5042901;28;20049;-72
2023/12/20 04:00:10;;;;;;;8.52;2.65;;;16.90;87.50;;;;;;5051858;28;20053;-69
2023/12/20 04:02:37;;;;;;;9.65;2.92;;;16.60;89.40;;;;;;5038265;28;20052;-71
2023/12/20 04:05:03;;;;;;;9.23;2.78;;;16.70;89.40;;;;;;5068469;28;20367;-65
2023/12/20 04:07:29;;;;;;;8.70;2.58;;;16.60;89.50;;;;;;5053113;28;20049;-65
2023/12/20 04:09:55;;;;;;;8.93;3.00;;;;;;;;;;5051584;28;20453;-69
2023/12/20 04:12:21;;;;;;;8.65;2.88;;;16.70;88.40;;;;;;5051579;28;20084;-65
2023/12/20 04:14:47;;;;;;;9.82;2.95;;;16.60;88.10;;;;;;5035220;28;20073;-64
2023/12/20 04:17:12;;;;;;;8.73;2.85;;;16.70;89.70;;;;;;5064895;28;20054;-74
2023/12/20 04:19:38;;;;;;;9.65;2.83;;;16.60;89.60;;;;;;5037944;28;20037;-69
2023/12/20 04:22:04;;;;;;;8.35;2.72;;;;;;;;;;5059519;28;20052;-64
2023/12/20 04:24:30;;;;;;;8.82;2.50;;;;;;;;;;5050920;28;20182;-64
2023/12/20 04:26:56;;;;;;;9.13;2.83;;;;;;;;;;5067660;28;20056;-67
2023/12/20 04:29:23;;;;;;;8.00;2.47;;;16.70;88.00;;;;;;5072687;28;20071;-65
2023/12/20 04:31:51;;;;;;;9.35;2.50;;;;;;;;;;5069628;28;20080;-71
2023/12/20 04:34:17;;;;;;;8.20;3.00;;;;;;;;;;5057694;28;20057;-64
2023/12/20 04:36:43;;;;;;;9.15;2.60;;;;;;;;;;5052591;28;20457;-67
2023/12/20 04:39:09;;;;;;;9.52;3.05;;;16.60;89.90;;;;;;5052220;28;20128;-72
2023/12/20 04:41:35;;;;;;;11.40;3.40;;;;;;;;;;5051367;28;20053;-65
2023/12/20 04:44:02;;;;;;;11.43;3.58;;;;;;;;;;5051405;28;20052;-68
2023/12/20 04:46:28;;;;;;;8.65;2.83;;;;;;;;;;5068737;28;20048;-64
2023/12/20 04:48:54;;;;;;;10.48;3.25;;;;;;;;;;5034899;28;20514;-70
2023/12/20 04:51:20;;;;;;;9.90;2.95;;;;;;;;;;5047178;28;20053;-70
2023/12/20 04:53:46;;;;;;;8.80;2.90;;;;;;;;;;5049967;28;20128;-66
2023/12/20 04:56:12;;;;;;;9.93;3.17;;;16.50;89.90;;;;;;5062979;28;20509;-68
2023/12/20 04:58:37;;;;;;;9.20;3.40;;;16.30;87.30;;;;;;5071450;28;20139;-66
2023/12/20 05:01:05;;;;;;;12.90;3.63;;;16.50;90.00;;;;;;5072651;28;20497;-74
2023/12/20 05:03:31;;;;;;;10.50;3.60;;;16.30;89.90;;;;;;5072375;28;20410;-69
2023/12/20 05:05:56;;;;;;;11.27;3.45;;;16.50;90.00;;;;;;5048013;28;20045;-71
2023/12/20 05:08:22;;;;;;;9.00;3.38;;;16.40;90.00;;;;;;5051476;28;20455;-69
2023/12/20 05:10:48;;;;;;;12.70;3.90;;;;;;;;;;5038945;28;20041;-67
2023/12/20 05:13:15;;;;;;;9.95;3.25;;;;;;;;;;5052412;28;20048;-68
2023/12/20 05:15:41;;;;;;;10.80;3.20;;;16.40;89.90;;;;;;5051110;28;20052;-68
2023/12/20 05:18:06;;;;;;;9.63;3.20;;;16.40;90.00;;;;;;5051928;28;20040;-64
2023/12/20 05:20:32;;;;;;;9.95;3.40;;;16.40;90.00;;;;;;5050890;28;20405;-66
2023/12/20 05:22:58;;;;;;;12.77;3.70;;;16.20;90.00;;;;;;5051137;28;20041;-66
2023/12/20 05:25:24;;;;;;;11.52;3.55;;;;;;;;;;5050789;28;20063;-68
2023/12/20 05:27:50;;;;;;;11.93;3.63;;;16.40;89.10;;;;;;5051313;28;20056;-72
2023/12/20 05:30:16;;;;;;;11.50;3.95;;;16.40;90.00;;;;;;5050953;28;20144;-66
2023/12/20 05:32:42;;;;;;;10.77;3.42;;;;;;;;;;5052243;28;20132;-71
2023/12/20 05:35:08;;;;;;;9.60;3.67;;;;;;;;;;5050581;28;20055;-70
2023/12/20 05:37:34;;;;;;;11.38;3.58;;;;;;;;;;5060759;28;20385;-68
2023/12/20 05:40:00;;;;;;;10.63;3.30;;;;;;;;;;5036495;28;20065;-69
2023/12/20 05:42:26;;;;;;;11.90;3.83;;;;;;;;;;5036097;28;20121;-68
2023/12/20 05:44:52;;;;;;;10.05;3.55;;;;;;;;;;5036016;28;20443;-71
2023/12/20 05:47:19;;;;;;;11.73;3.25;;;;;;;;;;5047718;28;20390;-76
2023/12/20 05:49:45;;;;;;;13.55;3.90;;;16.30;87.50;;;;;;5055532;28;20056;-71
2023/12/20 05:52:11;;;;;;;11.32;3.85;;;;;;;;;;5064242;28;20048;-76
2023/12/20 05:54:37;;;;;;;12.48;4.00;;;;;;;;;;5059825;28;20040;-72
2023/12/20 05:57:03;;;;;;;10.45;3.28;;;16.20;90.00;;;;;;5054983;28;20095;-75
2023/12/20 05:59:29;;;;;;;11.68;3.45;;;16.40;90.00;;;;;;5101293;28;20457;-75
2023/12/20 06:01:55;;;;;;;11.32;3.53;;;16.40;90.00;;;;;;5064631;28;20098;-72
2023/12/20 06:04:21;;;;;;;11.50;3.67;;;;;;;;;;5069282;28;20044;-72
2023/12/20 06:06:47;;;;;;;13.25;3.67;;;16.20;90.00;;;;;;5063630;28;20057;-76
2023/12/20 06:09:13;;;;;;;13.20;3.65;;;16.20;89.50;;;;;;5053364;28;20037;-75
2023/12/20 06:11:38;;;;;;;14.30;3.92;;;16.40;90.10;;;;;;5054109;28;20390;-76
2023/12/20 06:14:04;;;;;;;15.90;3.90;;;;;;;;;;5052144;28;20041;-76
2023/12/20 06:16:30;;;;;;;12.82;4.00;;;16.30;90.10;;;;;;5055161;28;20486;-76
2023/12/20 06:18:56;;;;;;;14.60;4.38;;;;;;;;;;5054207;28;20107;-73
2023/12/20 06:21:22;;;;;;;13.13;4.32;;;;;;;;;;5055030;28;20045;-70
2023/12/20 06:23:49;;;;;;;11.57;4.00;;;;;;;;;;5056984;28;20123;-67
2023/12/20 06:26:14;;;;;;;10.20;3.55;;;16.10;90.10;;;;;;5072422;28;20087;-66
2023/12/20 06:28:40;;;;;;;11.52;3.70;;;16.10;87.90;;;;;;5053310;28;20498;-66
2023/12/20 06:31:06;;;;;;;12.02;3.83;;;16.20;88.90;;;;;;5043328;28;20039;-64
2023/12/20 06:33:32;;;;;;;10.65;3.78;;;;;;;;;;5053067;28;20049;-70
2023/12/20 06:35:58;;;;;;;12.38;3.75;;;;;;;;;;5052923;28;20060;-66
2023/12/20 06:38:24;;;;;;;9.48;3.50;;;;;;;;;;5054788;28;20107;-65
2023/12/20 06:40:50;;;;;;;15.60;4.32;;;16.20;90.20;;;;;;5052356;28;20060;-64
2023/12/20 06:43:16;;;;;;;9.85;3.80;;;16.30;90.30;;;;;;5054934;28;20041;-65
2023/12/20 06:45:42;;;;;;;13.57;4.13;;;16.20;90.20;;;;;;5058102;28;20339;-65
2023/12/20 06:48:08;;;;;;;11.27;3.45;;;;;;;;;;5034301;28;20115;-67
2023/12/20 06:50:34;;;;;;;13.82;4.13;;;;;;;;;;5034829;28;20045;-68
2023/12/20 06:53:06;;;;;;;12.88;4.18;;;16.20;90.20;;;;;;5049368;28;20056;-65
2023/12/20 06:55:33;;;;;;;12.20;3.63;;;16.10;90.20;;;;;;5053966;28;20495;-71
2023/12/20 06:57:59;;;;;;;12.43;4.10;;;;;;;;;;5074731;28;20410;-70
2023/12/20 07:00:25;;;;;;;12.15;3.78;;;;;;;;;;5065763;28;20037;-66
2023/12/20 07:02:52;;;;;;;13.35;4.03;;;;;;;;;;5051773;28;20076;-64
2023/12/20 07:05:19;;;;;;;14.15;4.25;;;;;;;;;;5055949;28;20076;-66
2023/12/20 07:07:46;;;;;;;14.25;4.05;;;16.10;88.30;;;;;;5057244;28;20056;-66
2023/12/20 07:10:13;;;;;;;12.68;4.18;;;16.20;90.30;;;;;;5036752;28;20048;-68
2023/12/20 07:12:39;;;;;;;12.80;4.18;;;;;;;;;;5052729;28;20044;-67
2023/12/20 07:15:08;;;;;;;13.82;4.43;;;16.30;87.30;;;;;;5053989;28;20049;-68
2023/12/20 07:17:34;;;;;;;11.68;4.07;;;;;;;;;;5053607;28;20123;-64
2023/12/20 07:20:04;;;;;;;11.73;4.05;;;;;;;;;;5050011;28;20071;-64
2023/12/20 07:22:33;;;;;;;29.42;5.35;;;16.10;90.30;;;;;;5035682;28;20050;-63
2023/12/20 07:24:59;;;;;;;82.43;62.80;;;;;;;;;;5053697;28;20080;-65
2023/12/20 07:27:26;;;;;;;296.27;127.15;;;16.20;90.50;;;;;;5053763;28;20044;-63
2023/12/20 07:29:51;;;;;;;232.32;68.88;;;16.20;90.50;;;;;;5053945;28;20390;-64
2023/12/20 07:32:17;;;;;;;156.40;53.55;;;;;;;;;;5052784;28;20041;-65
2023/12/20 07:34:43;;;;;;;169.70;81.15;;;16.30;89.40;;;;;;5053959;28;20044;-64
2023/12/20 07:37:13;;;;;;;165.40;98.82;;;;;;;;;;5049498;28;20398;-65
2023/12/20 07:39:40;;;;;;;141.05;82.28;;;16.60;90.40;;;;;;5054025;28;20413;-69
2023/12/20 07:42:06;;;;;;;123.72;77.70;;;;;;;;;;5051013;28;20057;-64
2023/12/20 07:44:32;;;;;;;114.15;71.43;;;;;;;;;;5050818;28;20041;-64
2023/12/20 07:46:58;;;;;;;107.20;62.03;;;;;;;;;;5055286;28;20168;-64
2023/12/20 07:49:24;;;;;;;83.65;57.50;;;16.70;90.20;;;;;;5053620;28;20045;-66
2023/12/20 07:51:50;;;;;;;80.68;51.58;;;;;;;;;;5052474;28;20501;-65
2023/12/20 07:54:16;;;;;;;82.72;49.42;;;16.60;88.30;;;;;;5050725;28;20128;-65
2023/12/20 07:56:42;;;;;;;67.65;46.03;;;16.80;90.20;;;;;;5056047;28;20617;-65
2023/12/20 07:59:08;;;;;;;66.10;42.53;;;16.80;90.10;;;;;;5053196;28;20474;-65
2023/12/20 08:01:33;;;;;;;60.53;40.85;;;16.80;90.10;;;;;;5052435;28;20036;-68
2023/12/20 08:03:59;;;;;;;53.22;39.40;;;17.00;90.10;;;;;;5053464;28;20051;-65
2023/12/20 08:06:25;;;;;;;49.78;39.22;;;17.00;90.00;;;;;;5052384;28;20135;-65
2023/12/20 08:08:51;;;;;;;48.40;40.17;;;;;;;;;;5051416;28;20092;-66
2023/12/20 08:11:17;;;;;;;60.13;38.75;;;17.30;89.70;;;;;;5057348;28;20085;-65
2023/12/20 08:13:43;;;;;;;47.28;37.55;;;;;;;;;;5033246;28;20521;-67
2023/12/20 08:16:09;;;;;;;42.95;36.00;;;17.40;89.20;;;;;;5049449;28;20048;-64
2023/12/20 08:18:35;;;;;;;47.60;39.22;;;17.40;89.20;;;;;;5053116;28;20041;-64
2023/12/20 08:21:02;;;;;;;55.88;43.40;;;17.60;89.10;;;;;;5060671;28;20059;-71
2023/12/20 08:23:28;;;;;;;168.80;150.85;;;;;;;;;;5085248;28;20052;-64
2023/12/20 08:25:54;;;;;;;130.80;116.90;;;;;;;;;;5034448;28;20040;-64
2023/12/20 08:28:20;;;;;;;109.53;98.63;;;17.80;88.80;;;;;;5047388;28;20482;-68
2023/12/20 08:30:46;;;;;;;99.90;90.32;;;18.00;88.80;;;;;;5034034;28;20049;-67
2023/12/20 08:33:12;;;;;;;95.78;85.22;;;17.90;88.30;;;;;;5052634;28;20079;-64
2023/12/20 08:35:41;;;;;;;83.45;75.28;;;18.20;88.10;;;;;;5043893;28;20053;-64
2023/12/20 08:38:07;;;;;;;80.63;72.78;;;;;;;;;;5082898;28;20056;-64
2023/12/20 08:40:33;;;;;;;74.22;66.78;;;;;;;;;;5051264;28;20052;-64
2023/12/20 08:42:59;;;;;;;70.15;63.47;;;18.50;87.10;;;;;;5047202;28;20402;-64
2023/12/20 08:45:25;;;;;;;65.90;58.97;;;18.50;87.10;;;;;;5078115;28;20056;-67
2023/12/20 08:47:51;;;;;;;60.00;53.92;;;;;;;;;;5079994;28;20045;-66
2023/12/20 08:50:18;;;;;;;55.33;49.63;;;18.80;86.70;;;;;;5087105;28;20048;-70
2023/12/20 08:52:44;;;;;;;44.90;40.75;;;;;;;;;;5064628;28;20047;-67
2023/12/20 08:55:10;;;;;;;42.15;37.83;;;18.80;86.90;;;;;;5051225;28;20435;-73
2023/12/20 08:57:36;;;;;;;40.65;36.65;;;18.70;84.60;;;;;;5054164;28;20398;-64
2023/12/20 09:00:03;;;;;;;39.38;35.30;;;;;;;;;;5054631;28;20033;-68
2023/12/20 09:02:29;;;;;;;89.85;81.60;;;18.80;87.00;;;;;;5042457;28;20485;-69
2023/12/20 09:04:55;;;;;;;62.55;56.42;;;18.90;86.70;;;;;;5045243;28;20099;-67
2023/12/20 09:07:25;;;;;;;55.38;50.13;;;18.80;84.30;;;;;;5052030;28;20061;-67
2023/12/20 09:09:51;;;;;;;48.72;43.42;;;18.70;86.70;;;;;;5051597;28;20049;-74
2023/12/20 09:12:20;;;;;;;41.90;37.72;;;18.90;86.80;;;;;;5094813;28;20045;-76
2023/12/20 09:14:47;;;;;;;38.25;34.22;;;18.90;86.80;;;;;;5037431;28;20041;-71
2023/12/20 09:17:13;;;;;;;35.58;32.20;;;18.90;86.80;;;;;;5056111;28;20124;-67
2023/12/20 09:19:39;;;;;;;32.33;29.15;;;18.90;85.90;;;;;;5054545;28;20578;-71
2023/12/20 09:22:05;;;;;;;30.42;26.95;;;18.90;86.70;;;;;;5051365;28;20052;-73
2023/12/20 09:24:31;;;;;;;28.92;25.95;;;18.90;86.70;;;;;;5053801;28;20122;-73
2023/12/20 09:26:57;;;;;;;27.75;24.27;;;18.70;86.70;;;;;;5037551;28;20466;-69
2023/12/20 09:29:23;;;;;;;25.50;22.90;;;18.90;86.90;;;;;;5058894;28;20052;-78
2023/12/20 09:31:49;;;;;;;25.08;22.40;;;18.70;86.80;;;;;;5074324;28;20255;-76
2023/12/20 09:34:15;;;;;;;21.92;19.80;;;18.70;86.90;;;;;;5061644;28;20056;-78
2023/12/20 09:36:46;;;;;;;21.00;18.90;;;18.50;86.70;;;;;;5037127;28;20063;-75
2023/12/20 09:39:20;;;;;;;20.05;18.05;;;18.80;83.00;;;;;;5036355;28;20108;-70
2023/12/20 09:42:07;;;;;;;18.77;16.88;;;18.70;84.60;;;;;;5053738;28;20482;-65
2023/12/20 09:44:34;;;;;;;18.38;15.77;;;18.70;87.40;;;;;;5053135;28;20153;-79
2023/12/20 09:47:01;;;;;;;17.13;15.32;;;18.40;87.40;;;;;;5054597;28;20057;-78
2023/12/20 09:49:28;;;;;;;17.83;15.07;;;;;;;;;;5038455;28;20056;-75
2023/12/20 09:51:54;;;;;;;14.70;13.20;;;;;;;;;;5037882;28;20144;-64
2023/12/20 09:54:20;;;;;;;16.58;14.25;;;18.40;87.30;;;;;;5055409;28;20040;-64
2023/12/20 09:56:47;;;;;;;14.35;12.57;;;;;;;;;;5087867;28;20476;-64
2023/12/20 09:59:13;;;;;;;15.10;12.00;;;18.40;85.40;;;;;;5053525;28;20443;-64
2023/12/20 10:01:43;;;;;;;13.57;12.23;;;18.30;84.10;;;;;;5060567;28;20057;-70
2023/12/20 10:04:12;;;;;;;13.95;11.02;;;18.40;87.90;;;;;;5065933;28;20426;-78
2023/12/20 10:06:44;;;;;;;13.43;10.80;;;18.40;85.00;;;;;;5037489;28;20088;-67
2023/12/20 10:09:10;;;;;;;22.15;10.77;;;18.40;88.00;;;;;;5070789;28;20053;-68
2023/12/20 10:11:37;;;;;;;358.70;65.45;;;18.20;88.00;;;;;;5037832;28;20037;-73
2023/12/20 10:14:03;;;;;;;827.25;533.65;;;18.10;84.40;;;;;;5039070;28;20418;-69
2023/12/20 10:16:29;;;;;;;686.83;450.38;;;18.30;87.50;;;;;;5056423;28;20057;-70
2023/12/20 10:18:55;;;;;;;771.67;545.85;;;;;;;;;;5090992;28;20037;-65
2023/12/20 10:21:22;;;;;;;604.70;424.02;;;18.40;85.70;;;;;;5050958;28;20044;-71
2023/12/20 10:23:50;;;;;;;528.05;354.02;;;;;;;;;;5048677;28;20056;-66
2023/12/20 10:26:25;;;;;;;466.83;305.65;;;18.20;87.90;;;;;;5067398;28;20052;-70
2023/12/20 10:28:53;;;;;;;399.70;268.05;;;18.40;87.90;;;;;;5036974;28;20046;-69
2023/12/20 10:31:34;;;;;;;343.80;238.77;;;18.30;86.60;;;;;;5025480;28;20068;-65
2023/12/20 10:34:01;;;;;;;248.48;156.23;;;18.60;84.80;;;;;;5065815;28;20386;-67
2023/12/20 10:36:29;;;;;;;254.25;168.38;;;18.20;83.60;;;;;;5017111;28;20052;-65
2023/12/20 10:38:58;;;;;;;151.93;84.07;;;18.50;85.60;;;;;;5051752;28;20049;-66
2023/12/20 10:41:28;;;;;;;129.32;78.22;;;18.20;85.90;;;;;;5054741;28;20077;-65
2023/12/20 10:44:02;;;;;;;92.45;56.20;;;;;;;;;;5051325;28;20459;-65
2023/12/20 10:46:29;;;;;;;82.40;44.90;;;18.10;82.50;;;;;;5033016;28;20045;-66
2023/12/20 10:48:55;;;;;;;72.53;37.30;;;18.50;82.00;;;;;;5034415;28;20048;-67
2023/12/20 10:51:22;;;;;;;65.07;34.70;;;18.20;85.20;;;;;;5036381;28;20040;-67
2023/12/20 10:53:49;;;;;;;54.05;27.95;;;;;;;;;;5036744;28;20486;-67
2023/12/20 10:56:18;;;;;;;53.47;24.17;;;18.20;80.90;;;;;;5050930;28;20056;-66
2023/12/20 10:58:45;;;;;;;36.03;18.55;;;18.00;84.90;;;;;;5051748;28;20045;-66
2023/12/20 11:01:13;;;;;;;36.33;18.60;;;18.10;84.80;;;;;;5050166;28;20076;-69
2023/12/20 11:03:39;;;;;;;32.13;15.93;;;;;;;;;;5035087;28;20529;-67
2023/12/20 11:06:09;;;;;;;28.65;13.70;;;18.10;84.80;;;;;;5058172;28;20053;-66
2023/12/20 11:09:08;;;;;;;25.50;13.02;;;17.90;82.20;;;;;;5042030;28;20096;-67
2023/12/20 11:12:21;;;;;;;24.85;12.60;;;18.00;80.90;;;;;;5080201;28;20060;-65
2023/12/20 11:14:52;;;;;;;42.60;26.08;;;17.90;84.90;;;;;;5059722;28;20049;-67
2023/12/20 11:17:18;;;;;;;76.03;31.77;;;;;;;;;;5021041;28;20088;-66
2023/12/20 11:19:53;;;;;;;121.40;31.80;;;18.10;85.30;;;;;;5035997;28;20426;-65
2023/12/20 11:22:20;;;;;;;99.13;29.40;;;18.00;82.60;;;;;;5044861;28;20052;-66
2023/12/20 11:24:47;;;;;;;148.07;31.02;;;18.10;82.70;;;;;;5052013;28;20445;-66
2023/12/20 11:27:13;;;;;;;178.13;31.50;;;18.30;85.40;;;;;;5053800;28;20037;-66
2023/12/20 11:29:39;;;;;;;181.77;32.30;;;;;;;;;;5052079;28;20084;-65
2023/12/20 11:32:24;;;;;;;268.42;37.50;;;18.30;85.60;;;;;;5053508;28;20044;-67
2023/12/20 11:35:00;;;;;;;221.70;34.67;;;18.50;85.80;;;;;;5051280;28;20091;-69
2023/12/20 11:37:35;;;;;;;233.77;60.65;;;18.50;85.80;;;;;;5046514;28;20052;-68
2023/12/20 11:40:02;;;;;;;185.57;44.47;;;18.50;85.90;;;;;;5055076;28;20067;-66
2023/12/20 11:42:28;;;;;;;158.73;43.08;;;18.80;85.90;;;;;;5055088;28;20096;-66
2023/12/20 11:44:54;;;;;;;169.50;41.20;;;18.70;85.80;;;;;;5035961;28;20502;-65
2023/12/20 11:47:20;;;;;;;150.23;37.03;;;18.70;85.70;;;;;;5052209;28;20464;-66
2023/12/20 11:49:49;;;;;;;138.10;35.45;;;18.80;81.70;;;;;;5051698;28;20041;-66
2023/12/20 11:52:15;;;;;;;110.00;33.20;;;;;;;;;;5051291;28;20112;-66
2023/12/20 11:54:41;;;;;;;118.78;31.73;;;19.10;85.60;;;;;;5068400;28;20043;-68
2023/12/20 11:57:06;;;;;;;93.10;29.67;;;19.00;84.20;;;;;;5058297;28;20494;-67
2023/12/20 11:59:33;;;;;;;91.47;27.77;;;;;;;;;;5051660;28;20045;-66
2023/12/20 12:02:00;;;;;;;86.60;26.58;;;19.10;85.50;;;;;;5053933;28;20099;-66
2023/12/20 12:04:28;;;;;;;78.38;25.45;;;19.10;85.50;;;;;;5052655;28;20129;-66
2023/12/20 12:06:54;;;;;;;64.63;22.52;;;19.10;85.40;;;;;;5051640;28;20057;-66
2023/12/20 12:09:19;;;;;;;66.88;21.90;;;19.10;85.40;;;;;;5047117;28;20458;-67
2023/12/20 12:11:45;;;;;;;55.38;22.02;;;19.00;85.40;;;;;;5033193;28;20449;-65
2023/12/20 12:14:11;;;;;;;49.25;19.45;;;19.10;85.40;;;;;;5048154;28;20086;-68
2023/12/20 12:16:37;;;;;;;53.33;18.88;;;19.00;85.40;;;;;;5033259;28;20098;-67
2023/12/20 12:19:04;;;;;;;44.00;17.63;;;19.00;85.50;;;;;;5051758;28;20037;-68
2023/12/20 12:21:30;;;;;;;31.58;16.02;;;;;;;;;;5052858;28;20048;-68
2023/12/20 12:24:07;;;;;;;45.15;15.75;;;19.00;83.10;;;;;;5059979;28;20102;-68
2023/12/20 12:26:33;;;;;;;43.45;15.80;;;19.00;85.50;;;;;;5044998;28;20505;-68
2023/12/20 12:28:59;;;;;;;35.60;14.35;;;18.80;85.50;;;;;;5053097;28;20049;-67
2023/12/20 12:31:26;;;;;;;31.60;14.32;;;18.90;85.30;;;;;;5085136;28;20138;-67
2023/12/20 12:33:52;;;;;;;30.55;13.52;;;;;;;;;;5050887;28;20036;-68
2023/12/20 12:36:18;;;;;;;32.33;16.45;;;18.80;85.50;;;;;;5083672;28;20076;-68
2023/12/20 12:38:44;;;;;;;107.20;86.40;;;18.60;85.40;;;;;;5052625;28;20150;-69
2023/12/20 12:41:12;;;;;;;56.45;45.08;;;18.70;85.20;;;;;;5052562;28;20049;-66
2023/12/20 12:43:38;;;;;;;51.28;41.65;;;18.70;85.50;;;;;;5081082;28;20502;-66
2023/12/20 12:46:04;;;;;;;51.03;35.92;;;18.70;85.50;;;;;;5062356;28;20060;-67
2023/12/20 12:48:30;;;;;;;44.83;34.60;;;;;;;;;;5050214;28;20123;-67
2023/12/20 12:50:59;;;;;;;45.42;30.83;;;18.50;85.20;;;;;;5064543;28;20177;-68
2023/12/20 12:53:26;;;;;;;40.97;29.52;;;18.60;81.90;;;;;;5070362;28;20053;-66
2023/12/20 12:55:53;;;;;;;75.13;28.98;;;;;;;;;;5057956;28;20048;-69
2023/12/20 12:58:19;;;;;;;143.57;32.17;;;;;;;;;;5054272;28;20103;-68
2023/12/20 13:00:45;;;;;;;419.08;48.92;;;;;;;;;;5043391;28;20068;-68
2023/12/20 13:03:11;;;;;;;930.60;117.15;;;18.50;85.20;;;;;;5031252;28;20426;-68
2023/12/20 13:05:37;;;;;;;930.00;116.65;;;18.60;85.20;;;;;;5046161;28;20052;-66
2023/12/20 13:08:05;;;;;;;698.47;84.13;;;18.60;85.30;;;;;;5059731;28;20051;-69